Time;durP1;ratioP1;P1;durP2;ratioP2;P2;SDS_P1;SDS_P2;PMS_P1;PMS_P2;Temp;Humidity;BMP_temperature;BMP_pressure;BME280_temperature;BME280_humidity;BME280_pressure;Samples;Min_cycle;Max_cycle;Signal;HPM_P1;HPM_P2
2021/12/29 00:00:54;;;;;;;10.30;4.20;;;;;;;2.67;100.00;99438.19;5032669;28;20532;-87
2021/12/29 00:03:21;;;;;;;9.95;3.83;;;;;;;2.59;100.00;99450.47;5015596;28;20080;-87
2021/12/29 00:05:48;;;;;;;7.45;3.17;;;;;;;2.63;100.00;99436.59;5014705;28;20049;-87
2021/12/29 00:08:14;;;;;;;7.78;2.95;;;;;;;2.90;100.00;99486.69;5002756;28;20467;-87
2021/12/29 00:10:41;;;;;;;7.43;2.90;;;;;;;2.77;100.00;99499.09;5014902;28;20483;-87
2021/12/29 00:13:08;;;;;;;8.23;3.28;;;;;;;2.50;100.00;99435.19;5014937;28;20049;-88
2021/12/29 00:15:36;;;;;;;10.70;3.55;;;;;;;2.53;100.00;99455.78;5014744;28;20056;-88
2021/12/29 00:18:04;;;;;;;7.25;3.05;;;;;;;2.45;100.00;99419.81;5014785;28;20053;-87
2021/12/29 00:20:31;;;;;;;7.15;2.55;;;;;;;2.94;100.00;99451.28;5014832;28;20053;-88
2021/12/29 00:23:01;;;;;;;6.60;2.53;;;;;;;2.69;100.00;99444.16;5014410;28;20072;-88
2021/12/29 00:25:28;;;;;;;4.28;1.90;;;;;;;3.14;100.00;99467.09;5014300;28;20192;-87
2021/12/29 00:27:58;;;;;;;4.90;1.90;;;;;;;3.05;100.00;99451.84;5015362;28;20052;-88
2021/12/29 00:30:25;;;;;;;5.97;1.90;;;;;;;3.40;100.00;99478.47;5030481;28;20064;-88
2021/12/29 00:32:52;;;;;;;4.85;2.10;;;;;;;3.17;100.00;99437.72;5014544;28;20070;-88
2021/12/29 00:35:19;;;;;;;9.32;2.17;;;;;;;3.05;100.00;99428.56;5032332;28;20064;-88
2021/12/29 00:37:46;;;;;;;5.95;2.63;;;;;;;2.85;100.00;99417.03;5014066;28;20129;-88
2021/12/29 00:40:13;;;;;;;7.75;2.58;;;;;;;2.90;100.00;99431.56;5014864;28;20252;-88
2021/12/29 00:42:41;;;;;;;6.28;2.35;;;;;;;3.04;100.00;99469.06;5015521;28;20507;-89
2021/12/29 00:45:09;;;;;;;6.05;2.35;;;;;;;2.76;100.00;99444.84;5014420;28;20047;-88
2021/12/29 00:47:37;;;;;;;7.30;2.63;;;;;;;2.74;100.00;99426.78;5014906;28;20045;-88
2021/12/29 00:50:10;;;;;;;7.93;2.97;;;;;;;2.91;100.00;99474.66;5015014;28;20045;-88
2021/12/29 00:52:37;;;;;;;5.72;2.95;;;;;;;2.82;100.00;99462.81;5032235;28;20049;-88
2021/12/29 00:55:04;;;;;;;5.57;2.40;;;;;;;2.86;100.00;99469.59;5017426;28;20061;-88
2021/12/29 00:57:31;;;;;;;6.82;2.60;;;;;;;2.91;100.00;99474.66;5029357;28;20053;-88
2021/12/29 00:59:59;;;;;;;6.15;2.47;;;;;;;2.79;100.00;99474.06;5013420;28;20060;-87
2021/12/29 01:02:26;;;;;;;6.38;2.78;;;;;;;2.59;100.00;99473.72;5013989;28;20046;-87
2021/12/29 01:04:53;;;;;;;7.57;2.80;;;;;;;2.68;100.00;99485.59;5013827;28;20081;-87
2021/12/29 01:07:21;;;;;;;6.15;2.65;;;;;;;2.80;100.00;99487.84;5017289;28;20136;-87
2021/12/29 01:09:48;;;;;;;7.82;3.08;;;;;;;2.74;100.00;99490.56;5017408;28;20085;-86
2021/12/29 01:12:15;;;;;;;6.40;2.67;;;;;;;2.85;100.00;99493.72;5036017;28;20050;-87
2021/12/29 01:14:51;;;;;;;7.50;3.08;;;;;;;2.94;100.00;99498.69;5034055;28;20049;-87
2021/12/29 01:17:18;;;;;;;7.90;3.22;;;;;;;2.98;100.00;99492.53;5035459;28;20472;-88
2021/12/29 01:19:45;;;;;;;9.05;3.28;;;;;;;2.90;100.00;99483.28;5016678;28;20046;-88
2021/12/29 01:22:11;;;;;;;7.15;2.88;;;;;;;2.82;100.00;99491.25;5018113;28;20479;-87
2021/12/29 01:24:39;;;;;;;6.57;2.72;;;;;;;2.88;100.00;99497.97;5021934;28;20053;-88
2021/12/29 01:27:06;;;;;;;8.30;2.72;;;;;;;2.95;100.00;99487.44;5034035;28;20053;-87
2021/12/29 01:29:33;;;;;;;8.32;3.10;;;;;;;2.99;100.00;99520.09;5016806;28;20056;-88
2021/12/29 01:32:00;;;;;;;7.32;2.78;;;;;;;2.94;100.00;99510.75;5034963;28;20053;-88
2021/12/29 01:34:27;;;;;;;8.07;2.55;;;;;;;2.85;100.00;99496.31;5017358;28;20080;-87
2021/12/29 01:36:54;;;;;;;7.43;2.80;;;;;;;2.78;100.00;99490.47;5017548;28;20053;-88
2021/12/29 01:39:21;;;;;;;5.05;2.20;;;;;;;3.00;100.00;99514.03;5016296;28;20693;-88
2021/12/29 01:41:51;;;;;;;5.95;2.30;;;;;;;3.08;100.00;99510.38;5017678;28;20053;-88
2021/12/29 01:44:23;;;;;;;8.18;3.35;;;;;;;2.88;100.00;99506.59;5017811;28;20471;-88
2021/12/29 01:46:52;;;;;;;8.57;2.95;;;;;;;3.04;100.00;99500.09;5012971;28;20480;-89
2021/12/29 01:49:19;;;;;;;4.88;2.30;;;;;;;2.62;100.00;99492.59;5016180;28;20175;-88
2021/12/29 01:51:59;;;;;;;7.15;2.75;;;;;;;2.88;100.00;99487.66;5015171;28;20104;-88
2021/12/29 01:54:26;;;;;;;7.45;2.45;;;;;;;2.81;100.00;99492.97;4997932;28;20049;-88
2021/12/29 01:56:56;;;;;;;7.60;2.95;;;;;;;2.53;100.00;99464.38;4997725;28;20133;-88
2021/12/29 01:59:27;;;;;;;7.40;2.80;;;;;;;2.81;100.00;99500.72;5014297;28;20259;-87
2021/12/29 02:01:54;;;;;;;6.45;2.20;;;;;;;2.65;100.00;99499.41;5017159;28;20057;-88
2021/12/29 02:04:22;;;;;;;9.50;2.97;;;;;;;2.56;100.00;99482.41;5017253;28;20092;-88
2021/12/29 02:06:49;;;;;;;7.30;2.85;;;;;;;2.72;100.00;99500.13;5034633;28;20056;-87
2021/12/29 02:09:16;;;;;;;6.25;2.25;;;;;;;2.95;100.00;99495.19;5016258;28;20056;-87
2021/12/29 02:11:45;;;;;;;7.03;2.50;;;;;;;2.98;100.00;99479.59;5016839;28;20050;-87
2021/12/29 02:14:12;;;;;;;7.18;2.78;;;;;;;3.01;100.00;99501.94;5016655;28;20149;-88
2021/12/29 02:16:39;;;;;;;7.35;2.67;;;;;;;2.96;100.00;99502.06;5016774;28;20468;-88
2021/12/29 02:19:11;;;;;;;8.20;2.45;;;;;;;2.91;100.00;99493.59;5015076;28;20053;-88
2021/12/29 02:21:42;;;;;;;7.20;2.58;;;;;;;2.81;100.00;99481.78;5016983;28;20055;-87
2021/12/29 02:26:39;;;;;;;9.38;2.67;;;;;;;2.68;100.00;99485.59;5034460;28;20049;-87
2021/12/29 02:29:10;;;;;;;6.43;2.50;;;;;;;2.93;100.00;99490.97;5015830;28;20152;-87
2021/12/29 02:31:37;;;;;;;6.85;2.40;;;;;;;2.93;100.00;99468.53;5016422;28;20068;-87
2021/12/29 02:34:08;;;;;;;5.70;2.30;;;;;;;3.11;100.00;99474.94;5035661;28;20380;-86
2021/12/29 02:36:36;;;;;;;6.38;2.60;;;;;;;3.09;100.00;99466.38;5054247;28;20049;-86
2021/12/29 02:39:04;;;;;;;8.30;2.72;;;;;;;3.16;100.00;99480.00;5021143;28;20049;-87
2021/12/29 02:41:31;;;;;;;7.78;2.80;;;;;;;3.14;100.00;99479.19;5034361;28;20524;-86
2021/12/29 02:44:00;;;;;;;6.43;2.72;;;;;;;3.10;100.00;99472.41;5033631;28;20056;-87
2021/12/29 02:46:29;;;;;;;7.13;2.50;;;;;;;3.15;100.00;99474.00;5032492;28;20053;-87
2021/12/29 02:49:02;;;;;;;7.10;2.53;;;;;;;2.93;100.00;99450.44;5015061;28;20136;-87
2021/12/29 02:51:29;;;;;;;;;;;;;;;3.32;100.00;99478.69;5034846;28;20072;-87
2021/12/29 02:53:56;;;;;;;7.32;2.78;;;;;;;3.07;100.00;99475.09;5016433;28;20282;-86
2021/12/29 02:56:26;;;;;;;8.70;3.40;;;;;;;2.89;100.00;99460.91;5016054;28;20053;-87
2021/12/29 02:58:57;;;;;;;6.97;2.47;;;;;;;2.65;100.00;99407.22;5030580;28;20061;-86
2021/12/29 03:01:26;;;;;;;9.15;2.88;;;;;;;3.09;100.00;99456.03;5033020;28;20053;-86
2021/12/29 03:03:53;;;;;;;8.80;3.17;;;;;;;2.68;100.00;99408.03;5016125;28;20479;-86
2021/12/29 03:06:20;;;;;;;6.95;2.60;;;;;;;2.79;100.00;99409.44;5016490;28;20064;-87
2021/12/29 03:08:47;;;;;;;8.82;3.55;;;;;;;2.31;100.00;99391.75;5032567;28;20411;-87
2021/12/29 03:11:14;;;;;;;8.90;3.65;;;;;;;2.77;100.00;99442.22;5015595;28;20049;-87
2021/12/29 03:13:42;;;;;;;6.97;2.33;;;;;;;2.72;100.00;99427.75;5021373;28;20470;-86
2021/12/29 03:16:10;;;;;;;7.80;3.00;;;;;;;2.42;100.00;99358.72;5032076;28;20064;-86
2021/12/29 03:18:38;;;;;;;7.07;2.65;;;;;;;2.77;100.00;99429.31;5031939;28;20140;-86
2021/12/29 03:21:05;;;;;;;7.22;2.65;;;;;;;2.88;100.00;99435.94;5015856;28;20059;-87
2021/12/29 03:23:32;;;;;;;7.18;2.75;;;;;;;2.88;100.00;99443.69;5016152;28;20041;-87
2021/12/29 03:25:59;;;;;;;7.45;2.92;;;;;;;3.12;100.00;99427.50;5032235;28;20056;-87
2021/12/29 03:28:26;;;;;;;6.20;2.15;;;;;;;3.28;100.00;99440.03;5030238;28;20053;-87
2021/12/29 03:30:54;;;;;;;8.40;2.72;;;;;;;3.17;100.00;99450.63;5015446;28;20049;-86
2021/12/29 03:33:24;;;;;;;5.63;2.30;;;;;;;3.25;100.00;99425.41;5015561;28;20483;-87
2021/12/29 03:35:54;;;;;;;5.95;2.35;;;;;;;3.39;100.00;99420.69;5015814;28;20053;-89
2021/12/29 03:38:24;;;;;;;7.32;2.60;;;;;;;3.69;100.00;99437.97;5014755;28;20041;-88
2021/12/29 03:40:52;;;;;;;7.57;2.50;;;;;;;3.76;100.00;99422.19;5015355;28;20053;-89
2021/12/29 03:43:20;;;;;;;9.68;3.35;;;;;;;3.65;100.00;99410.44;5014989;28;20410;-88
2021/12/29 03:45:50;;;;;;;7.03;2.40;;;;;;;3.69;100.00;99423.25;5032346;28;20073;-88
2021/12/29 03:48:19;;;;;;;5.53;2.13;;;;;;;3.86;100.00;99427.06;5030799;28;20059;-89
2021/12/29 03:50:49;;;;;;;6.82;2.60;;;;;;;3.87;100.00;99416.66;5015424;28;20053;-88
2021/12/29 03:53:16;;;;;;;7.32;2.60;;;;;;;3.87;100.00;99426.19;5023468;28;20144;-88
2021/12/29 03:55:44;;;;;;;7.45;2.50;;;;;;;3.79;100.00;99406.56;5032803;28;20395;-87
2021/12/29 03:58:12;;;;;;;6.38;2.33;;;;;;;3.56;100.00;99381.38;5030480;28;20052;-88
2021/12/29 04:00:39;;;;;;;5.97;2.28;;;;;;;3.82;100.00;99384.88;5015335;28;20085;-88
2021/12/29 04:03:06;;;;;;;5.97;2.55;;;;;;;3.86;100.00;99403.75;5031674;28;20455;-88
2021/12/29 04:05:34;;;;;;;7.18;1.95;;;;;;;3.79;100.00;99396.19;5015311;28;20069;-88
2021/12/29 04:08:02;;;;;;;8.07;3.05;;;;;;;3.68;100.00;99367.19;5014006;28;20041;-87
2021/12/29 04:10:29;;;;;;;7.47;2.63;;;;;;;3.86;100.00;99385.63;5015567;28;20399;-88
2021/12/29 04:12:57;;;;;;;4.80;2.13;;;;;;;4.14;100.00;99408.91;5021416;28;20500;-88
2021/12/29 04:15:29;;;;;;;5.82;2.05;;;;;;;4.02;100.00;99405.00;5034215;28;20072;-88
2021/12/29 04:18:02;;;;;;;10.98;2.88;;;;;;;3.86;100.00;99383.03;5027985;28;20042;-88
2021/12/29 04:23:19;;;;;;;6.68;2.38;;;;;;;3.96;100.00;99364.56;5015733;28;20385;-88
2021/12/29 04:25:49;;;;;;;7.55;2.30;;;;;;;4.02;100.00;99360.09;5031401;28;20049;-88
2021/12/29 04:28:20;;;;;;;5.88;2.10;;;;;;;3.86;100.00;99331.25;5013864;28;20059;-87
2021/12/29 04:30:48;;;;;;;5.97;2.28;;;;;;;3.74;100.00;99329.94;5014536;28;20049;-87
2021/12/29 04:33:17;;;;;;;7.55;2.55;;;;;;;3.99;100.00;99304.91;5014188;28;20112;-87
2021/12/29 04:35:45;;;;;;;14.95;2.33;;;;;;;3.96;100.00;99310.19;5038976;28;20045;-87
2021/12/29 04:38:12;;;;;;;6.53;2.33;;;;;;;4.07;100.00;99309.00;5026100;28;20074;-87
2021/12/29 04:40:39;;;;;;;7.05;2.40;;;;;;;4.13;100.00;99324.34;5032772;28;20045;-88
2021/12/29 04:43:05;;;;;;;7.88;3.00;;;;;;;4.13;100.00;99335.53;5018895;28;20049;-88
2021/12/29 04:45:32;;;;;;;8.43;2.47;;;;;;;4.41;100.00;99328.56;5017920;28;20052;-88
2021/12/29 04:48:01;;;;;;;5.85;2.13;;;;;;;4.50;100.00;99305.78;5033717;28;20052;-87
2021/12/29 04:50:35;;;;;;;9.63;2.45;;;;;;;4.59;100.00;99316.72;5017469;28;20049;-87
2021/12/29 04:53:04;;;;;;;6.28;2.20;;;;;;;4.57;100.00;99304.66;5018848;28;20403;-87
2021/12/29 04:55:31;;;;;;;6.07;2.13;;;;;;;4.53;100.00;99315.16;5036038;28;20052;-87
2021/12/29 04:57:59;;;;;;;6.57;2.30;;;;;;;4.68;100.00;99322.41;5010845;28;20443;-87
2021/12/29 05:00:29;;;;;;;8.95;2.00;;;;;;;4.63;100.00;99328.66;5035792;28;20407;-87
2021/12/29 05:02:58;;;;;;;10.70;2.72;;;;;;;4.57;100.00;99335.75;5017894;28;20153;-86
2021/12/29 05:10:46;;;;;;;6.32;2.08;;;;;;;4.61;100.00;99320.09;5035512;28;20096;-87
2021/12/29 05:13:14;;;;;;;5.05;2.00;;;;;;;4.77;100.00;99310.03;5018069;28;20539;-87
2021/12/29 05:15:41;;;;;;;5.72;1.83;;;;;;;4.50;100.00;99305.78;5018099;28;20052;-88
2021/12/29 05:18:09;;;;;;;8.73;2.70;;;;;;;4.44;100.00;99290.41;5017313;28;20049;-88
2021/12/29 05:20:36;;;;;;;4.18;1.80;;;;;;;4.56;100.00;99299.50;5034337;28;20060;-87
2021/12/29 05:23:03;;;;;;;8.68;2.85;;;;;;;4.69;100.00;99307.69;5034246;28;20490;-88
2021/12/29 05:25:30;;;;;;;7.22;2.25;;;;;;;4.75;100.00;99315.25;5017817;28;20132;-88
2021/12/29 05:27:57;;;;;;;10.20;2.40;;;;;;;4.64;100.00;99310.47;5017221;28;20060;-88
2021/12/29 05:30:26;;;;;;;7.40;2.38;;;;;;;4.68;100.00;99316.38;5018436;28;20398;-88
2021/12/29 05:32:53;;;;;;;5.10;1.77;;;;;;;4.66;100.00;99310.41;5035095;28;20053;-88
2021/12/29 05:35:25;;;;;;;6.55;2.20;;;;;;;4.59;100.00;99304.59;5018337;28;20049;-88
2021/12/29 05:37:52;;;;;;;10.02;2.28;;;;;;;4.55;100.00;99266.69;5016820;28;20050;-88
2021/12/29 05:40:19;;;;;;;6.65;1.95;;;;;;;4.73;100.00;99265.22;5034708;28;20054;-88
2021/12/29 05:42:46;;;;;;;6.07;1.88;;;;;;;4.69;100.00;99241.16;5017508;28;20382;-88
2021/12/29 05:45:14;;;;;;;4.90;1.60;;;;;;;4.72;100.00;99261.75;5017820;28;20055;-88
2021/12/29 05:47:42;;;;;;;6.28;2.38;;;;;;;4.71;100.00;99269.59;5016871;28;20446;-88
2021/12/29 05:50:13;;;;;;;5.28;1.80;;;;;;;5.03;100.00;99296.94;5016305;28;20057;-86
2021/12/29 05:52:40;;;;;;;5.72;1.90;;;;;;;4.93;100.00;99264.44;5026532;28;20142;-88
2021/12/29 05:55:08;;;;;;;5.63;1.88;;;;;;;4.86;100.00;99232.72;5017158;28;20049;-87
2021/12/29 05:57:36;;;;;;;8.57;2.70;;;;;;;5.23;100.00;99297.91;5029591;28;20049;-87
2021/12/29 06:00:05;;;;;;;5.85;2.10;;;;;;;5.38;100.00;99289.50;5017145;28;20522;-87
2021/12/29 06:02:32;;;;;;;8.05;2.65;;;;;;;5.33;100.00;99279.31;5034583;28;20384;-86
2021/12/29 06:04:59;;;;;;;6.57;1.95;;;;;;;5.53;100.00;99282.88;5034661;28;20045;-88
2021/12/29 06:07:26;;;;;;;7.05;2.38;;;;;;;5.27;100.00;99269.16;5033854;28;20048;-88
2021/12/29 06:09:53;;;;;;;9.60;2.55;;;;;;;5.32;100.00;99259.47;5016679;28;20419;-88
2021/12/29 06:12:19;;;;;;;4.97;2.22;;;;;;;5.61;100.00;99273.03;5033705;28;20124;-88
2021/12/29 06:14:47;;;;;;;6.43;2.10;;;;;;;5.82;100.00;99286.88;5033790;28;20056;-88
2021/12/29 06:17:14;;;;;;;6.05;2.08;;;;;;;5.68;100.00;99268.41;5015901;28;20052;-88
2021/12/29 06:19:41;;;;;;;7.78;2.33;;;;;;;5.66;100.00;99268.47;5013861;28;20259;-88
2021/12/29 06:22:10;;;;;;;8.18;2.42;;;;;;;5.71;100.00;99243.16;5017021;28;20052;-88
2021/12/29 06:24:38;;;;;;;10.45;2.55;;;;;;;5.82;100.00;99244.47;5011794;28;20049;-88
2021/12/29 06:27:06;;;;;;;6.85;2.63;;;;;;;5.86;100.00;99244.31;5034728;28;20049;-88
2021/12/29 06:29:33;;;;;;;8.00;2.50;;;;;;;5.83;100.00;99249.63;5015713;28;20049;-88
2021/12/29 06:32:00;;;;;;;9.70;3.20;;;;;;;5.59;100.00;99220.31;5016376;28;20053;-87
2021/12/29 06:34:29;;;;;;;8.45;2.92;;;;;;;5.82;100.00;99223.69;5016102;28;20041;-87
2021/12/29 06:36:58;;;;;;;8.25;2.63;;;;;;;5.89;100.00;99214.75;5016204;28;20049;-88
2021/12/29 06:39:25;;;;;;;9.45;3.28;;;;;;;5.69;100.00;99202.59;5015833;28;20053;-88
2021/12/29 06:41:52;;;;;;;6.15;2.17;;;;;;;5.88;100.00;99223.47;5034111;28;20049;-87
2021/12/29 06:44:19;;;;;;;6.50;2.75;;;;;;;5.64;100.00;99176.81;5035725;28;20041;-88
2021/12/29 06:46:45;;;;;;;7.43;2.40;;;;;;;5.60;100.00;99161.44;5036169;28;20435;-88
2021/12/29 06:49:12;;;;;;;6.32;2.53;;;;;;;5.28;100.00;99148.06;5019507;28;20076;-88
2021/12/29 06:51:39;;;;;;;6.78;2.40;;;;;;;5.28;100.00;99122.94;5015774;28;20053;-88
2021/12/29 06:54:06;;;;;;;8.50;2.85;;;;;;;5.62;100.00;99129.31;5015681;28;20060;-88
2021/12/29 06:56:33;;;;;;;8.45;2.72;;;;;;;5.67;100.00;99122.16;5016635;28;20060;-88
2021/12/29 06:59:00;;;;;;;6.82;2.63;;;;;;;5.85;100.00;99143.06;5015326;28;20046;-88
2021/12/29 07:01:26;;;;;;;8.43;3.53;;;;;;;5.77;100.00;99132.16;5015678;28;20049;-87
2021/12/29 07:03:53;;;;;;;8.80;3.20;;;;;;;5.89;100.00;99148.03;5015479;28;20053;-88
2021/12/29 07:06:20;;;;;;;8.20;2.55;;;;;;;5.97;100.00;99152.13;5015864;28;20045;-88
2021/12/29 07:08:47;;;;;;;7.32;2.63;;;;;;;5.98;100.00;99133.84;5015090;28;20053;-88
2021/12/29 07:11:14;;;;;;;12.50;3.08;;;;;;;5.79;100.00;99122.53;5032324;28;20053;-88
2021/12/29 07:13:42;;;;;;;9.63;3.95;;;;;;;5.78;100.00;99116.50;5032893;28;20052;-87
2021/12/29 07:16:09;;;;;;;10.45;3.85;;;;;;;5.95;100.00;99120.09;5015378;28;20053;-87
2021/12/29 07:18:36;;;;;;;9.30;3.67;;;;;;;5.98;100.00;99104.41;5013967;28;20058;-87
2021/12/29 07:21:03;;;;;;;8.23;3.15;;;;;;;5.95;100.00;99107.97;5032797;28;20483;-87
2021/12/29 07:23:30;;;;;;;8.93;3.67;;;;;;;5.84;100.00;99108.47;5016009;28;20410;-87
2021/12/29 07:25:57;;;;;;;10.23;4.53;;;;;;;5.87;100.00;99104.88;5014973;28;20060;-87
2021/12/29 07:28:23;;;;;;;12.10;4.20;;;;;;;5.89;100.00;99095.25;5014918;28;20063;-88
2021/12/29 07:30:50;;;;;;;8.27;3.22;;;;;;;5.97;100.00;99082.81;5014700;28;20049;-87
2021/12/29 07:33:17;;;;;;;8.70;3.40;;;;;;;6.05;100.00;99070.28;5025902;28;20049;-87
2021/12/29 07:35:44;;;;;;;11.88;4.47;;;;;;;5.94;100.00;99062.13;5015225;28;20857;-88
2021/12/29 07:38:11;;;;;;;12.18;4.85;;;;;;;6.01;100.00;99076.53;5031312;28;20077;-87
2021/12/29 07:40:38;;;;;;;12.38;4.18;;;;;;;5.89;100.00;99064.91;5022624;28;20491;-88
2021/12/29 07:43:04;;;;;;;11.20;4.53;;;;;;;5.86;100.00;99049.50;5017858;28;20493;-88
2021/12/29 07:45:32;;;;;;;14.15;5.10;;;;;;;5.81;100.00;99030.66;5006920;28;20060;-87
2021/12/29 07:47:59;;;;;;;10.93;4.38;;;;;;;5.69;100.00;99039.84;5031045;28;20049;-88
2021/12/29 07:50:26;;;;;;;9.23;3.63;;;;;;;5.97;100.00;99075.00;5013924;28;20408;-87
2021/12/29 07:52:58;;;;;;;15.25;5.32;;;;;;;5.61;100.00;99015.13;5013363;28;20056;-87
2021/12/29 07:55:24;;;;;;;13.80;5.35;;;;;;;5.86;100.00;99041.69;5014790;28;20128;-87
2021/12/29 07:57:51;;;;;;;10.50;3.10;;;;;;;6.07;100.00;99041.63;5013572;28;20133;-87
2021/12/29 08:00:18;;;;;;;10.07;2.90;;;;;;;6.35;100.00;99033.41;5013783;28;20460;-87
2021/12/29 08:02:47;;;;;;;11.13;2.50;;;;;;;6.64;100.00;99023.38;5031924;28;20059;-88
2021/12/29 08:05:14;;;;;;;9.98;2.95;;;;;;;6.86;100.00;99040.53;5030994;28;20221;-88
2021/12/29 08:07:47;;;;;;;11.32;2.97;;;;;;;6.99;100.00;99036.38;5012380;28;20045;-87
2021/12/29 08:10:27;;;;;;;10.38;2.15;;;;;;;7.08;100.00;99014.25;5036174;28;20092;-87
2021/12/29 08:12:54;;;;;;;9.05;2.10;;;;;;;7.14;100.00;99012.19;5028565;28;20046;-86
2021/12/29 08:15:22;;;;;;;10.15;2.90;;;;;;;6.75;100.00;98963.03;5026176;28;20051;-85
2021/12/29 08:17:49;;;;;;;12.95;2.58;;;;;;;6.91;100.00;98997.75;5019175;28;20621;-84
2021/12/29 08:20:16;;;;;;;12.63;3.78;;;;;;;6.84;100.00;98955.59;5015642;28;20132;-84
2021/12/29 08:22:43;;;;;;;17.88;3.20;;;;;;;7.13;100.00;98984.47;5017229;28;20136;-84
2021/12/29 08:25:10;;;;;;;19.83;3.85;;;;;;;7.30;100.00;98964.56;5016296;28;20049;-84
2021/12/29 08:27:37;;;;;;;10.15;2.60;;;;;;;7.39;100.00;98993.53;5032542;28;20057;-86
2021/12/29 08:30:07;;;;;;;10.57;3.63;;;;;;;7.29;100.00;98960.25;5039827;28;20071;-85
2021/12/29 08:32:34;;;;;;;11.00;3.10;;;;;;;7.66;100.00;98997.38;5056549;28;20077;-86
2021/12/29 08:35:02;;;;;;;13.55;2.85;;;;;;;7.66;100.00;98985.19;5039953;28;20063;-86
2021/12/29 08:37:29;;;;;;;13.43;3.25;;;;;;;7.50;100.00;98953.91;5031623;28;20223;-86
2021/12/29 08:39:56;;;;;;;11.35;3.25;;;;;;;7.85;100.00;98985.03;5036718;28;20127;-85
2021/12/29 08:42:23;;;;;;;17.60;4.00;;;;;;;7.46;100.00;98943.75;5019450;28;20050;-86
2021/12/29 08:44:50;;;;;;;17.45;3.83;;;;;;;7.74;100.00;98974.38;5019747;28;20073;-86
2021/12/29 08:47:17;;;;;;;9.02;2.50;;;;;;;7.53;100.00;98903.44;5030027;28;20049;-86
2021/12/29 08:49:45;;;;;;;11.82;3.17;;;;;;;7.32;100.00;98924.50;5033572;28;20056;-86
2021/12/29 08:52:11;;;;;;;18.13;4.38;;;;;;;7.39;100.00;98938.88;5019836;28;20057;-86
2021/12/29 08:54:39;;;;;;;15.65;3.33;;;;;;;7.70;100.00;98970.22;5019347;28;20053;-87
2021/12/29 08:57:07;;;;;;;15.07;3.35;;;;;;;7.59;100.00;98935.19;5020752;28;20049;-87
2021/12/29 08:59:34;;;;;;;13.95;3.30;;;;;;;7.63;100.00;98919.41;5037882;28;20049;-87
2021/12/29 09:02:01;;;;;;;10.45;3.15;;;;;;;7.74;100.00;98950.94;5039004;28;20127;-86
2021/12/29 09:04:28;;;;;;;14.55;3.17;;;;;;;7.55;100.00;98912.00;5046279;28;20141;-87
2021/12/29 09:06:58;;;;;;;15.32;2.95;;;;;;;7.66;100.00;98909.66;5056374;28;20486;-87
2021/12/29 09:09:26;;;;;;;8.25;2.47;;;;;;;7.68;100.00;98954.69;5038383;28;20046;-86
2021/12/29 09:11:54;;;;;;;12.32;3.63;;;;;;;7.52;100.00;98893.94;5036209;28;20053;-86
2021/12/29 09:14:22;;;;;;;14.82;3.25;;;;;;;7.89;100.00;98934.44;5029412;28;20071;-86
2021/12/29 09:16:48;;;;;;;13.57;3.72;;;;;;;7.72;100.00;98922.34;5056884;28;20411;-86
2021/12/29 09:19:16;;;;;;;12.82;3.05;;;;;;;7.64;100.00;98910.66;5021400;28;20061;-86
2021/12/29 09:21:44;;;;;;;9.35;2.65;;;;;;;7.79;100.00;98874.19;5036295;28;20073;-86
2021/12/29 09:24:12;;;;;;;13.23;2.88;;;;;;;7.84;100.00;98907.78;5017066;28;20042;-86
2021/12/29 09:26:38;;;;;;;16.50;3.95;;;;;;;7.66;100.00;98883.59;5036532;28;20522;-86
2021/12/29 09:29:05;;;;;;;15.23;3.47;;;;;;;7.91;100.00;98924.75;5038204;28;20061;-86
2021/12/29 09:31:33;;;;;;;14.95;3.67;;;;;;;8.16;100.00;98929.47;5041100;28;20064;-85
2021/12/29 09:34:01;;;;;;;15.52;3.20;;;;;;;8.39;100.00;98924.69;5061171;28;20057;-87
2021/12/29 09:36:28;;;;;;;15.40;3.80;;;;;;;7.78;100.00;98901.16;5049290;28;20051;-86
2021/12/29 09:38:55;;;;;;;17.17;3.45;;;;;;;7.87;100.00;98897.19;5038747;28;20055;-87
2021/12/29 09:41:25;;;;;;;14.43;3.50;;;;;;;7.60;100.00;98873.53;5041769;28;20045;-86
2021/12/29 09:43:53;;;;;;;16.33;4.03;;;;;;;7.46;100.00;98842.19;5023936;28;20467;-85
2021/12/29 09:46:20;;;;;;;14.45;3.40;;;;;;;7.95;100.00;98900.22;5037567;28;20057;-84
2021/12/29 09:48:49;;;;;;;12.43;4.50;;;;;;;7.73;100.00;98861.50;5021881;28;20426;-85
2021/12/29 09:51:18;;;;;;;16.17;4.07;;;;;;;7.84;100.00;98868.69;5023787;28;20088;-84
2021/12/29 09:53:46;;;;;;;14.52;3.00;;;;;;;8.10;100.00;98892.47;5024208;28;20547;-86
2021/12/29 09:56:13;;;;;;;17.52;3.65;;;;;;;7.95;100.00;98849.84;5040864;28;20042;-86
2021/12/29 09:58:40;;;;;;;13.90;3.53;;;;;;;7.87;100.00;98842.47;5051621;28;20073;-85
2021/12/29 10:01:09;;;;;;;12.23;3.08;;;;;;;8.12;100.00;98861.94;5031525;28;20049;-87
2021/12/29 10:03:50;;;;;;;31.88;11.43;;;;;;;8.16;100.00;98853.88;5041472;28;20060;-87
2021/12/29 10:06:20;;;;;;;72.47;31.92;;;;;;;7.66;100.00;98804.63;5048239;28;20068;-86
2021/12/29 10:09:11;;;;;;;29.38;13.25;;;;;;;7.90;100.00;98785.00;5031772;28;20124;-87
2021/12/29 10:11:45;;;;;;;;;;;;;;;8.06;100.00;98824.03;5039546;28;20054;-87
2021/12/29 10:14:15;;;;;;;90.70;43.25;;;;;;;7.95;100.00;98803.81;5036330;28;19948;-86
2021/12/29 10:16:50;;;;;;;36.45;16.08;;;;;;;8.04;100.00;98791.16;5029121;28;20048;-87
2021/12/29 10:19:18;;;;;;;26.52;9.07;;;;;;;8.07;100.00;98776.16;5033438;28;20073;-88
2021/12/29 10:21:48;;;;;;;36.40;15.63;;;;;;;7.89;100.00;98725.97;5023992;28;20045;-86
2021/12/29 10:24:19;;;;;;;79.80;41.75;;;;;;;7.76;100.00;98676.34;5027668;28;20080;-88
2021/12/29 10:26:49;;;;;;;28.47;12.33;;;;;;;8.17;100.00;98737.38;5024050;28;20288;-87
2021/12/29 10:29:19;;;;;;;26.33;11.07;;;;;;;8.09;100.00;98717.00;5033387;28;20056;-87
2021/12/29 10:31:59;;;;;;;39.10;20.80;;;;;;;8.06;100.00;98709.34;5032323;28;20056;-88
2021/12/29 10:34:29;;;;;;;21.88;8.95;;;;;;;7.93;100.00;98680.59;5048396;28;20061;-87
2021/12/29 10:37:02;;;;;;;19.63;8.00;;;;;;;7.90;100.00;98666.91;5057896;28;20601;-87
2021/12/29 10:39:38;;;;;;;12.77;3.72;;;;;;;8.12;100.00;98690.72;5026250;28;20073;-88
2021/12/29 10:42:16;;;;;;;16.73;4.20;;;;;;;8.16;100.00;98683.56;5047443;28;20128;-88
2021/12/29 10:44:57;;;;;;;13.38;3.78;;;;;;;7.72;100.00;98654.03;5027264;28;20049;-87
2021/12/29 10:47:35;;;;;;;12.00;4.45;;;;;;;8.16;100.00;98654.88;5031500;28;20065;-86
2021/12/29 10:50:15;;;;;;;20.20;4.32;;;;;;;7.96;100.00;98588.34;5031302;28;20053;-88
2021/12/29 10:52:58;;;;;;;15.93;3.90;;;;;;;8.24;100.00;98633.56;5045774;28;20041;-87
2021/12/29 10:55:35;;;;;;;13.60;4.20;;;;;;;8.26;100.00;98614.28;5043417;28;20050;-87
2021/12/29 10:58:17;;;;;;;14.93;3.35;;;;;;;8.15;100.00;98608.91;5029366;28;20080;-88
2021/12/29 11:01:08;;;;;;;14.63;3.40;;;;;;;7.97;100.00;98596.06;5033392;28;20521;-88
2021/12/29 11:03:52;;;;;;;14.02;4.10;;;;;;;7.94;100.00;98566.75;5060678;28;20053;-88
2021/12/29 11:06:23;;;;;;;15.10;3.40;;;;;;;8.03;100.00;98544.50;5050251;28;20467;-88
2021/12/29 11:08:54;;;;;;;12.93;3.42;;;;;;;8.27;100.00;98576.00;5033102;28;20060;-89
2021/12/29 11:11:44;;;;;;;15.77;3.08;;;;;;;7.79;100.00;98498.16;5032342;28;20053;-87
2021/12/29 11:14:31;;;;;;;14.07;3.80;;;;;;;8.03;100.00;98532.31;5050937;28;20052;-88
2021/12/29 11:17:20;;;;;;;10.30;2.75;;;;;;;8.45;100.00;98548.00;5045911;28;20148;-88
2021/12/29 11:19:56;;;;;;;16.15;3.22;;;;;;;8.50;100.00;98554.59;5046344;28;20081;-88
2021/12/29 11:22:28;;;;;;;18.80;3.65;;;;;;;8.07;100.00;98512.09;5039157;28;20052;-88
2021/12/29 11:25:00;;;;;;;12.90;3.17;;;;;;;8.22;100.00;98560.69;5040998;28;20076;-89
2021/12/29 11:27:30;;;;;;;19.10;3.55;;;;;;;8.00;100.00;98514.25;5028723;28;20077;-88
2021/12/29 11:30:10;;;;;;;18.42;3.97;;;;;;;8.20;100.00;98559.06;5040768;28;20132;-87
2021/12/29 11:32:41;;;;;;;15.90;4.90;;;;;;;8.31;100.00;98580.13;5041779;28;20057;-87
2021/12/29 11:35:14;;;;;;;13.65;3.47;;;;;;;7.97;100.00;98510.06;5027648;28;20091;-87
2021/12/29 11:37:48;;;;;;;13.23;3.70;;;;;;;8.25;100.00;98550.06;5036792;28;20136;-88
2021/12/29 11:40:29;;;;;;;15.30;3.67;;;;;;;8.25;100.00;98530.94;5036507;28;20045;-87
2021/12/29 11:42:56;;;;;;;18.67;3.90;;;;;;;7.96;100.00;98503.19;5044989;28;20153;-87
2021/12/29 11:45:26;;;;;;;12.43;3.78;;;;;;;8.03;100.00;98498.44;5027478;28;20475;-87
2021/12/29 11:47:54;;;;;;;18.35;4.07;;;;;;;7.99;100.00;98487.34;5021283;28;20049;-88
2021/12/29 11:50:27;;;;;;;18.67;4.25;;;;;;;8.42;100.00;98511.63;5039573;28;20080;-87